Accueil
METAR-TAF:

METAR-TAF

Aéroports :

Southampton, Angleterre

Aéroport de Southampton

latitude: 50-54N, longitude: 001-24W, altitude: 9 m

Observation

Le bulletin a été fait il y a 36 minutes, à 11:20 UTC
Vent 9 kt de ouest, variant entre sud-ouest et nord-ouest
Température 19°C
Humidité 64%
Pression 1014 hPa
Visibilité 10 km ou plus
Nuages épars à une hauteur de 2400 ft
Nuages fragmentés à une hauteur de 3400 ft

METAR: EGHI 231120Z 28009KT 230V310 9999 SCT024 BKN034 19/12 Q1014

Heure: 12:56 (11:56 UTC)

Prévision

Le bulletin a été fait il y a 56 minutes, à 11:00 UTC
Prévision valable du 23 à 12 UTC au 23 à 21 UTC
Vent 9 kt de ouest
Visibilité 10 km ou plus
Nuages épars à une hauteur de 2000 ft

TAF: EGHI 231100Z 2312/2321 28009KT 9999 SCT020

Observations et prévisions météorologiques de plus de 4000 aéroports (messages METAR et TAF).

Les stations disponibles sont représentées par des disques jaunes et rouges sur la carte.

Passer la souris dessus pour voir le nom de la station.

Cliquer dessus pour voir les observations et prévisions météorologiques.

Pour changer de carte: cliquez sur les boutons verts avec une croix noire pour zoomer, sur le bouton vert avec un tiret pour effectuer un zoom arrière, ou sur les flèches vertes pour les cartes adjacentes.


METAR-TAF: